Historyczne dane pomiarowe

Dodano dane terminowe – wersja testowa.

Dane z okresu 1951-2019

Wersja bazy: 1.34 [2019-03-16, lista zmian], aktualizacja planowana na 2019-04-15

Dane meteo z obszaru Polski uzyskane na podstawie danych udostępnionych przez Instytut Meteorologii i Gospodarki Wodnej – Państwowy Instytut Badawczy.

 

Wybierz Datę:    

       

TemperaturaWilgotnośćWiatrCiśnienieOpadyŚniegCzas trwania zjawisk
 Stacja t tx tn tng RH VA  wxwx mslp ppp RRR   cm mm wxwxwxwxwxwxwx
1956-11-09 -4.4 -1.3 -6.6- 76.5- 4.7 2.7---- 0.0------------
1956-11-08 -2.6 0.5 -5.4- 74.5- 2.7 3.0---- 0.0------------
1956-11-07 -1.8 2.9 -3.0- 86.8- 3.3 5.0---- 0.0------------
1956-11-06 1.0 4.4 0.2- 75.3- 4.7 8.0---- 0.0------------
1956-11-05 3.1 6.5 -1.2- 79.3- 7.7 6.7---- 0.0------------
1956-11-04 0.1 4.5 -2.8- 76.0- 2.0 4.3---- 0.0------------
1956-11-03 0.4 2.9 -3.1- 89.0- 7.3 1.0---- 0.0------------
1956-11-02 0.2 4.4 -0.6- 92.8- 3.3 0.7---- 0.0------------
1956-11-01 -0.5 1.9 -7.2- 69.3- 6.3 6.0---- 0.4------------
1956-10-31 -5.5 -2.1 -8.6- 77.8- 1.0 1.7---- 0.0------------
1956-10-30 -1.2 4.0 -2.4- 90.0- 8.0 8.0---- 0.0------------
1956-10-29 5.2 9.8 3.9- 85.8- 5.3 3.7---- 0.0------------
1956-10-28 9.2 10.1 8.3- 97.0- 8.0 6.0---- 13.3------------
1956-10-27 9.2 11.3 7.6- 93.5- 8.0 5.7---- 1.8------------
1956-10-26 8.4 12.2 6.2- 94.0- 8.0 1.7---- 0.7------------
1956-10-25 11.0 15.6 5.7- 83.5- 4.3 3.7---- 0.0------------
1956-10-24 10.4 13.0 6.1- 87.5- 5.0 3.7---- 0.0------------
1956-10-23 9.6 11.6 8.3- 78.0- 7.7 3.7---- 0.0------------
1956-10-22 10.6 12.6 9.6- 91.0- 8.0 4.3---- 0.0------------
1956-10-21 11.6 15.2 7.7- 88.8- 2.3 2.7---- 0.0------------
1956-10-20 8.9 11.4 5.3- 91.0- 7.3 3.0---- 0.0------------
1956-10-19 9.7 13.4 7.9- 95.8- 7.3 4.7---- 0.6------------
1956-10-18 9.2 12.0 2.3- 92.0- 7.3 2.0---- 1.1------------
1956-10-17 6.6 12.3 4.1- 82.5- 0.7 2.3---- 0.0------------
1956-10-16 6.6 10.9 1.1- 85.0- 6.0 1.3---- 0.0------------
1956-10-15 6.4 12.2 1.9- 83.0- 1.3 3.0---- 0.0------------
1956-10-14 7.3 11.5 5.9- 71.8- 2.0 9.3---- 0.0------------
1956-10-13 10.1 12.6 8.2- 76.8- 7.3 10.3---- 8.4------------
1956-10-12 9.7 11.7 8.6- 83.5- 8.0 5.3---- 0.0------------
1956-10-11 8.6 12.0 4.7- 82.8- 7.0 7.7---- 0.0------------
1956-10-10 4.7 8.6 -0.8- 80.0- 4.3 2.0---- 0.0------------
1956-10-09 5.9 8.9 1.2- 95.8- 4.0 4.7---- 0.0------------
1956-10-08 5.1 9.2 3.5- 92.3- 6.3 3.7---- 0.0------------
1956-10-07 7.0 8.5 4.6- 84.3- 8.0 11.0---- 5.3------------
1956-10-06 7.4 9.5 5.7- 99.3- 8.0 5.0---- 48.0------------
1956-10-05 10.7 15.8 8.5- 83.3- 6.0 2.7---- 0.0------------
1956-10-04 8.9 12.4 3.3- 94.5- 6.0 1.7---- 0.0------------
1956-10-03 13.3 18.7 10.6- 79.3- 5.3 4.3---- 0.0------------
1956-10-02 17.1 25.2 8.4- 72.0- 3.0 4.0---- 0.0------------
1956-10-01 15.0 23.0 3.5- 81.8- 3.3 3.0---- 0.0------------
1956-09-30 11.2 16.5 9.4- 90.8- 3.7 4.0---- 0.0------------
1956-09-29 16.2 21.2 12.8- 79.8- 7.7 5.0---- 0.0------------
1956-09-28 14.4 19.2 10.1- 82.3- 4.7 4.0---- 0.0------------
1956-09-27 15.6 24.0 6.7- 69.0- 2.0 1.7---- 0.0------------
1956-09-26 12.4 22.1 4.6- 81.3- 0.0 2.7---- 0.0------------
1956-09-25 9.4 18.0 0.3- 82.5- 1.7 2.0---- 0.0------------
1956-09-24 6.7 13.9 2.0- 69.0- 0.3 5.3---- 0.0------------
1956-09-23 9.5 15.3 5.6- 74.8- 0.7 2.7---- 0.0------------
1956-09-22 11.2 18.1 4.8- 78.0- 1.0 3.7---- 0.0------------
1956-09-21 11.3 17.8 3.6- 73.0- 0.0 1.0---- 0.0------------
1956-09-20 10.4 17.4 2.6- 73.3- 3.7 1.7---- 0.0------------
1956-09-19 8.9 15.9 1.6- 76.5- 2.0 0.7---- 0.0------------
1956-09-18 8.9 14.1 5.1- 78.3- 2.0 2.3---- 0.0------------
1956-09-17 9.4 15.0 6.8- 72.5- 4.3 4.7---- 0.0------------
1956-09-16 10.8 13.5 6.0- 77.3- 6.0 6.0---- 0.0------------
1956-09-15 10.0 15.0 6.5- 87.8- 5.3 4.7---- 0.0------------
1956-09-14 11.0 15.6 7.0- 79.5- 3.0 2.7---- 0.0------------
1956-09-13 9.6 13.9 7.1- 84.0- 4.0 3.7---- 1.3------------
1956-09-12 11.2 15.8 9.1- 90.0- 5.3 3.7---- 9.5------------
1956-09-11 13.1 15.0 12.1- 96.0- 7.3 2.0---- 4.4------------
237.3 ms

 

Źródłem pochodzenia danych jest Instytut Meteorologii i Gospodarki Wodnej – Państwowy Instytut Badawczy. Dane Instytutu Meteorologii i Gospodarki Wodnej – Państwowego Instytutu Badawczego zostały przetworzone.

Dane źródłowe można odnaleźć na stronie https://dane.imgw.pl